Terminal Aerodrome Forecast
Issued by NWS Paducah, KY

Home | Current Version | Previous Version | Text Only | Print | Product List | Glossary On
Versions: 1 2 3 4 5 6 7 8 9 10 11 12 13 14
000
FTUS43 KPAH 210500
TAFPAH
TAF
KPAH 210520Z 2106/2206 22004KT P6SM SCT250
     FM210900 25006KT P6SM VCSH SCT040 BKN100
     FM211300 29008KT P6SM FEW015 SCT090
     FM211600 33010G16KT P6SM SKC
     FM220000 35004KT P6SM SKC=

USA.gov is the U.S. government's official web portal to all federal, state and local government web resources and services.